createdAt,value
2024-01-29T00:00:53.073Z,0.76
2024-01-29T00:03:22.575Z,0.75
2024-01-29T00:05:52.467Z,0.73
2024-01-29T00:08:21.639Z,0.69
2024-01-29T00:10:51.082Z,0.65
2024-01-29T00:13:20.890Z,0.60
2024-01-29T00:15:50.129Z,0.56
2024-01-29T00:18:19.310Z,0.53
2024-01-29T00:20:48.569Z,0.47
2024-01-29T00:23:18.133Z,0.44
2024-01-29T00:25:47.603Z,0.41
2024-01-29T00:28:16.500Z,0.36
2024-01-29T00:30:45.627Z,0.31
2024-01-29T00:33:14.848Z,0.28
2024-01-29T00:35:43.921Z,0.25
2024-01-29T00:38:13.155Z,0.25
2024-01-29T00:40:42.153Z,0.24
2024-01-29T00:43:11.384Z,0.20
2024-01-29T00:45:40.577Z,0.19
2024-01-29T00:48:10.779Z,0.15
2024-01-29T00:50:39.788Z,0.14
2024-01-29T00:53:08.803Z,0.11
2024-01-29T00:55:37.754Z,0.07
2024-01-29T00:58:07.483Z,-0.00
2024-01-29T01:00:36.704Z,-0.01
2024-01-29T01:03:06.009Z,-0.05
2024-01-29T01:05:35.109Z,-0.06
2024-01-29T01:08:04.793Z,-0.08
2024-01-29T01:10:34.210Z,-0.11
2024-01-29T01:13:03.454Z,-0.14
2024-01-29T01:15:32.613Z,-0.18
2024-01-29T01:18:02.082Z,-0.22
2024-01-29T01:20:31.049Z,-0.26
2024-01-29T01:23:01.306Z,-0.28
2024-01-29T01:25:30.456Z,-0.25
2024-01-29T01:27:59.979Z,-0.23
2024-01-29T01:30:29.418Z,-0.20
2024-01-29T01:32:58.552Z,-0.17
2024-01-29T01:35:27.539Z,-0.16
2024-01-29T01:37:56.526Z,-0.17
2024-01-29T01:40:25.615Z,-0.18
2024-01-29T01:42:54.743Z,-0.20
2024-01-29T01:45:24.449Z,-0.23
2024-01-29T01:47:53.506Z,-0.21
2024-01-29T01:50:23.352Z,-0.25
2024-01-29T01:52:52.350Z,-0.22
2024-01-29T01:55:21.386Z,-0.22
2024-01-29T01:57:50.526Z,-0.23
2024-01-29T02:00:20.057Z,-0.23
2024-01-29T02:02:49.169Z,-0.24
2024-01-29T02:05:18.364Z,-0.24
2024-01-29T02:07:47.496Z,-0.25
2024-01-29T02:10:16.904Z,-0.27
2024-01-29T02:12:45.926Z,-0.29
2024-01-29T02:15:15.064Z,-0.31
2024-01-29T02:17:44.037Z,-0.33
2024-01-29T02:20:13.478Z,-0.35
2024-01-29T02:22:44.692Z,-0.39
2024-01-29T02:25:13.859Z,-0.43
2024-01-29T02:27:43.055Z,-0.47
2024-01-29T02:30:13.618Z,-0.50
2024-01-29T02:32:42.835Z,-0.54
2024-01-29T02:35:12.540Z,-0.58
2024-01-29T02:37:41.855Z,-0.62
2024-01-29T02:40:11.773Z,-0.65
2024-01-29T02:42:41.909Z,-0.66
2024-01-29T02:45:11.255Z,-0.68
2024-01-29T02:47:40.319Z,-0.69
2024-01-29T02:50:09.957Z,-0.69
2024-01-29T02:52:38.965Z,-0.68
2024-01-29T02:55:08.614Z,-0.64
2024-01-29T02:57:37.880Z,-0.62
2024-01-29T03:00:07.870Z,-0.55
2024-01-29T03:02:37.066Z,-0.52
2024-01-29T03:05:08.304Z,-0.50
2024-01-29T03:07:37.248Z,-0.49
2024-01-29T03:10:07.082Z,-0.50
2024-01-29T03:12:36.122Z,-0.51
2024-01-29T03:15:05.914Z,-0.53
2024-01-29T03:17:35.576Z,-0.54
2024-01-29T03:20:05.287Z,-0.58
2024-01-29T03:22:34.362Z,-0.62
2024-01-29T03:25:03.496Z,-0.67
2024-01-29T03:27:32.642Z,-0.71
2024-01-29T03:30:01.831Z,-0.74
2024-01-29T03:32:30.902Z,-0.75
2024-01-29T03:35:00.123Z,-0.78
2024-01-29T03:37:29.227Z,-0.85
2024-01-29T03:39:58.282Z,-0.86
2024-01-29T03:42:27.752Z,-0.91
2024-01-29T03:44:57.028Z,-0.94
2024-01-29T03:47:26.010Z,-0.96
2024-01-29T03:49:55.012Z,-1.01
2024-01-29T03:52:24.221Z,-1.05
2024-01-29T03:54:53.937Z,-1.09
2024-01-29T03:57:23.831Z,-1.14
2024-01-29T03:59:55.225Z,-1.17
2024-01-29T04:02:24.247Z,-1.18
2024-01-29T04:04:53.871Z,-1.23
2024-01-29T04:07:23.703Z,-1.23
2024-01-29T04:09:52.817Z,-1.24
2024-01-29T04:12:22.022Z,-1.26
2024-01-29T04:14:51.284Z,-1.28
2024-01-29T04:17:20.269Z,-1.31
2024-01-29T04:19:49.339Z,-1.33
2024-01-29T04:22:18.346Z,-1.33
2024-01-29T04:24:47.444Z,-1.31
2024-01-29T04:27:16.456Z,-1.25
2024-01-29T04:29:46.192Z,-1.18
2024-01-29T04:32:15.285Z,-1.13
2024-01-29T04:34:44.605Z,-1.11
2024-01-29T04:37:13.530Z,-1.11
2024-01-29T04:39:42.744Z,-1.11
2024-01-29T04:42:12.144Z,-1.13
2024-01-29T04:44:41.676Z,-1.16
2024-01-29T04:47:10.801Z,-1.15
2024-01-29T04:49:40.128Z,-1.16
2024-01-29T04:52:09.240Z,-1.07
2024-01-29T04:54:38.461Z,-1.05
2024-01-29T04:57:07.698Z,-0.96
2024-01-29T04:59:37.878Z,-0.89
2024-01-29T05:02:06.901Z,-0.82
2024-01-29T05:04:36.123Z,-0.76
2024-01-29T05:07:05.553Z,-0.71
2024-01-29T05:09:34.619Z,-0.65
2024-01-29T05:12:03.796Z,-0.60
2024-01-29T05:14:33.323Z,-0.56
2024-01-29T05:17:02.596Z,-0.53
2024-01-29T05:19:32.026Z,-0.51
2024-01-29T05:22:03.089Z,-0.44
2024-01-29T05:24:32.581Z,-0.35
2024-01-29T05:27:01.778Z,-0.26
2024-01-29T05:29:32.628Z,-0.18
2024-01-29T05:32:02.454Z,-0.11
2024-01-29T05:34:31.678Z,-0.07
2024-01-29T05:37:00.903Z,-0.04
2024-01-29T05:39:30.103Z,-0.04
2024-01-29T05:41:59.282Z,0.01
2024-01-29T05:44:28.476Z,0.03
2024-01-29T05:46:57.650Z,0.03
2024-01-29T05:49:26.920Z,0.03
2024-01-29T05:51:56.831Z,0.01
2024-01-29T05:54:26.744Z,-0.02
2024-01-29T05:56:57.945Z,-0.04
2024-01-29T05:59:27.132Z,-0.07
2024-01-29T06:01:56.253Z,-0.09
2024-01-29T06:04:26.115Z,-0.10
2024-01-29T06:06:55.531Z,-0.08
2024-01-29T06:09:24.816Z,-0.06
2024-01-29T06:11:54.636Z,-0.07
2024-01-29T06:14:23.755Z,-0.12
2024-01-29T06:16:52.781Z,-0.12
2024-01-29T06:19:22.133Z,-0.14
2024-01-29T06:21:51.352Z,-0.11
2024-01-29T06:24:20.432Z,-0.09
2024-01-29T06:26:49.933Z,-0.02
2024-01-29T06:29:19.016Z,0.07
2024-01-29T06:31:48.037Z,0.11
2024-01-29T06:34:17.369Z,0.17
2024-01-29T06:36:46.550Z,0.21
2024-01-29T06:39:16.053Z,0.22
2024-01-29T06:41:45.250Z,0.22
2024-01-29T06:44:14.474Z,0.28
2024-01-29T06:46:43.582Z,0.31
2024-01-29T06:49:13.069Z,0.32
2024-01-29T06:51:42.210Z,0.34
2024-01-29T06:54:11.316Z,0.37
2024-01-29T06:56:40.619Z,0.35
2024-01-29T06:59:09.734Z,0.35
2024-01-29T07:01:38.908Z,0.34
2024-01-29T07:04:08.142Z,0.35
2024-01-29T07:06:38.499Z,0.37
2024-01-29T07:09:07.747Z,0.39
2024-01-29T07:11:36.685Z,0.40
2024-01-29T07:14:05.744Z,0.45
2024-01-29T07:16:34.781Z,0.51
2024-01-29T07:19:04.178Z,0.55
2024-01-29T07:21:33.319Z,0.61
2024-01-29T07:24:02.556Z,0.70
2024-01-29T07:26:31.588Z,0.81
2024-01-29T07:29:02.373Z,0.93
2024-01-29T07:31:31.828Z,1.06
2024-01-29T07:34:00.967Z,1.16
2024-01-29T07:36:30.108Z,1.27
2024-01-29T07:38:59.042Z,1.39
2024-01-29T07:41:28.020Z,1.59
2024-01-29T07:43:57.312Z,1.82
2024-01-29T07:46:26.660Z,2.07
2024-01-29T07:48:56.341Z,2.33
2024-01-29T07:51:25.834Z,2.63
2024-01-29T07:53:54.772Z,2.97
2024-01-29T07:56:23.930Z,3.32
2024-01-29T07:58:53.168Z,3.67
2024-01-29T08:01:22.283Z,3.95
2024-01-29T08:03:51.412Z,4.35
2024-01-29T08:06:20.838Z,4.68
2024-01-29T08:08:50.022Z,5.01
2024-01-29T08:11:19.117Z,5.34
2024-01-29T08:13:48.207Z,5.65
2024-01-29T08:16:17.264Z,5.97
2024-01-29T08:18:46.696Z,6.30
2024-01-29T08:21:15.875Z,6.58
2024-01-29T08:23:44.790Z,6.81
2024-01-29T08:26:14.071Z,7.06
2024-01-29T08:28:43.461Z,7.29
2024-01-29T08:31:12.522Z,7.45
2024-01-29T08:33:41.880Z,7.59
2024-01-29T08:36:11.328Z,7.63
2024-01-29T08:38:40.596Z,7.69
2024-01-29T08:41:09.926Z,7.66
2024-01-29T08:43:39.466Z,7.48
2024-01-29T08:46:08.573Z,7.31
2024-01-29T08:48:37.966Z,7.21
2024-01-29T08:51:07.551Z,6.96
2024-01-29T08:53:36.634Z,6.86
2024-01-29T08:56:08.794Z,6.95
2024-01-29T08:58:37.683Z,7.09
2024-01-29T09:01:07.173Z,7.30
2024-01-29T09:03:38.351Z,7.46
2024-01-29T09:06:09.204Z,7.51
2024-01-29T09:08:39.142Z,7.45
2024-01-29T09:11:08.053Z,7.48
2024-01-29T09:13:37.119Z,7.51
2024-01-29T09:16:06.658Z,7.54
2024-01-29T09:18:35.779Z,7.55
2024-01-29T09:21:05.505Z,7.68
2024-01-29T09:23:34.705Z,7.64
2024-01-29T09:26:03.690Z,7.46
2024-01-29T09:28:32.799Z,7.32
2024-01-29T09:31:02.015Z,7.17
2024-01-29T09:33:31.232Z,7.08
2024-01-29T09:36:00.497Z,6.96
2024-01-29T09:38:29.477Z,6.84
2024-01-29T09:40:58.578Z,6.77
2024-01-29T09:43:27.878Z,6.72
2024-01-29T09:45:57.258Z,6.87
2024-01-29T09:48:27.829Z,7.37
2024-01-29T09:50:58.750Z,7.96
2024-01-29T09:53:27.738Z,8.50
2024-01-29T09:55:57.604Z,8.89
2024-01-29T09:58:26.659Z,9.25
2024-01-29T10:00:56.050Z,9.51
2024-01-29T10:03:28.490Z,9.66
2024-01-29T10:05:57.697Z,9.69
2024-01-29T10:08:27.071Z,9.84
2024-01-29T10:10:56.080Z,9.76
2024-01-29T10:13:25.439Z,9.69
2024-01-29T10:15:54.452Z,9.48
2024-01-29T10:18:26.302Z,9.17
2024-01-29T10:21:04.048Z,8.88
2024-01-29T10:23:33.392Z,8.58
2024-01-29T10:26:02.649Z,8.28
2024-01-29T10:28:31.712Z,7.97
2024-01-29T10:31:02.207Z,7.67
2024-01-29T10:33:31.371Z,7.32
2024-01-29T10:36:00.755Z,7.01
2024-01-29T10:38:29.909Z,6.81
2024-01-29T10:40:59.048Z,6.64
2024-01-29T10:43:28.829Z,6.55
2024-01-29T10:45:58.037Z,6.54
2024-01-29T10:48:31.025Z,6.59
2024-01-29T10:51:00.609Z,6.79
2024-01-29T10:53:29.606Z,6.95
2024-01-29T10:55:58.747Z,6.90
2024-01-29T10:58:28.129Z,6.80
2024-01-29T11:00:57.177Z,6.68
2024-01-29T11:03:27.636Z,6.59
2024-01-29T11:05:58.476Z,6.47
2024-01-29T11:08:28.794Z,6.34
2024-01-29T11:10:59.257Z,6.24
2024-01-29T11:13:29.085Z,6.14
2024-01-29T11:15:58.183Z,6.09
2024-01-29T11:18:35.583Z,6.12
2024-01-29T11:21:20.775Z,6.05
2024-01-29T11:23:53.910Z,5.97
2024-01-29T11:26:24.573Z,5.97
2024-01-29T11:29:13.896Z,5.94
2024-01-29T11:31:52.902Z,5.90
2024-01-29T11:34:34.101Z,5.90
2024-01-29T11:37:06.594Z,5.90
2024-01-29T11:39:39.352Z,5.95
2024-01-29T11:42:08.748Z,6.08
2024-01-29T11:44:38.263Z,6.26
2024-01-29T11:47:10.903Z,6.44
2024-01-29T11:49:42.237Z,6.67
2024-01-29T11:52:12.767Z,7.26
2024-01-29T11:54:41.908Z,8.07
2024-01-29T11:57:10.980Z,8.91
2024-01-29T11:59:47.223Z,9.75
2024-01-29T12:02:17.943Z,10.31
2024-01-29T12:04:47.035Z,10.70
2024-01-29T12:07:16.762Z,11.41
2024-01-29T12:09:46.673Z,12.59
2024-01-29T12:12:15.972Z,13.61
2024-01-29T12:14:45.176Z,14.54
2024-01-29T12:17:16.081Z,15.38
2024-01-29T12:19:45.046Z,16.10
2024-01-29T12:22:15.583Z,16.52
2024-01-29T12:24:45.180Z,16.86
2024-01-29T12:27:14.932Z,17.23
2024-01-29T12:29:44.191Z,17.70
2024-01-29T12:32:13.722Z,18.01
2024-01-29T12:34:46.142Z,18.03
2024-01-29T12:37:22.438Z,18.15
2024-01-29T12:39:53.452Z,18.60
2024-01-29T12:42:22.789Z,19.06
2024-01-29T12:44:52.797Z,19.22
2024-01-29T12:47:21.958Z,19.30
2024-01-29T12:49:51.372Z,19.45
2024-01-29T12:52:20.912Z,19.27
2024-01-29T12:54:50.260Z,19.02
2024-01-29T12:57:19.562Z,18.59
2024-01-29T12:59:50.500Z,18.17
2024-01-29T13:02:19.519Z,17.74
2024-01-29T13:04:48.709Z,17.23
2024-01-29T13:07:17.854Z,16.66
2024-01-29T13:09:46.926Z,16.15
2024-01-29T13:12:16.053Z,15.80
2024-01-29T13:14:46.522Z,15.46
2024-01-29T13:17:15.626Z,14.92
2024-01-29T13:19:44.716Z,14.50
2024-01-29T13:22:13.913Z,14.16
2024-01-29T13:24:43.137Z,13.80
2024-01-29T13:27:12.093Z,13.44
2024-01-29T13:29:42.026Z,13.11
2024-01-29T13:32:11.591Z,12.89
2024-01-29T13:34:40.718Z,12.85
2024-01-29T13:37:10.695Z,12.53
2024-01-29T13:39:40.052Z,11.98
2024-01-29T13:42:09.857Z,11.51
2024-01-29T13:44:38.929Z,11.12
2024-01-29T13:47:08.728Z,10.75
2024-01-29T13:49:38.923Z,10.47
2024-01-29T13:52:08.524Z,10.29
2024-01-29T13:54:38.704Z,10.18
2024-01-29T13:57:07.869Z,10.07
2024-01-29T13:59:37.150Z,9.86
2024-01-29T14:02:06.583Z,9.67
2024-01-29T14:04:35.608Z,9.52
2024-01-29T14:07:08.306Z,9.40
2024-01-29T14:09:38.058Z,9.26
2024-01-29T14:12:08.397Z,9.10
2024-01-29T14:14:43.860Z,8.95
2024-01-29T14:17:16.184Z,8.80
2024-01-29T14:19:45.523Z,8.65
2024-01-29T14:22:14.685Z,8.51
2024-01-29T14:24:43.698Z,8.39
2024-01-29T14:27:14.111Z,8.30
2024-01-29T14:29:43.037Z,8.22
2024-01-29T14:32:15.042Z,8.16
2024-01-29T14:34:44.893Z,8.10
2024-01-29T14:37:14.859Z,8.03
2024-01-29T14:39:44.153Z,7.98
2024-01-29T14:42:13.546Z,7.91
2024-01-29T14:44:42.722Z,7.85
2024-01-29T14:47:14.204Z,7.80
2024-01-29T14:49:45.026Z,7.71
2024-01-29T14:52:14.790Z,7.65
2024-01-29T14:54:43.937Z,7.58
2024-01-29T14:57:13.242Z,7.50
2024-01-29T14:59:42.731Z,7.45
2024-01-29T15:02:11.931Z,7.40
2024-01-29T15:08:24.083Z,7.35
2024-01-29T15:15:01.844Z,7.19
2024-01-29T15:18:06.189Z,7.05
2024-01-29T15:21:17.023Z,6.95
2024-01-29T15:30:47.899Z,6.65
2024-01-29T15:33:59.676Z,6.56
2024-01-29T15:37:10.412Z,6.44
2024-01-29T15:50:14.141Z,6.07
2024-01-29T15:53:39.850Z,6.01
2024-01-29T15:57:12.895Z,5.94
2024-01-29T16:09:03.452Z,5.66
2024-01-29T16:11:56.424Z,5.61
2024-01-29T16:18:12.644Z,5.60
2024-01-29T16:21:04.394Z,5.58
2024-01-29T16:24:28.335Z,5.54
2024-01-29T16:27:17.081Z,5.46
2024-01-29T16:33:34.918Z,5.27
2024-01-29T16:36:44.940Z,5.14
2024-01-29T16:39:35.780Z,4.99
2024-01-29T16:42:40.231Z,4.86
2024-01-29T16:45:12.781Z,4.72
2024-01-29T16:48:22.323Z,4.62
2024-01-29T16:51:40.107Z,4.49
2024-01-29T16:57:47.039Z,4.30
2024-01-29T17:04:48.104Z,4.20
2024-01-29T17:07:56.261Z,4.18
2024-01-29T17:10:56.545Z,4.05
2024-01-29T17:17:15.773Z,4.02
2024-01-29T17:40:04.892Z,3.75
2024-01-29T17:44:00.382Z,3.75
2024-01-29T17:47:18.375Z,3.76
2024-01-29T17:50:18.755Z,3.80
2024-01-29T17:53:21.817Z,3.86
2024-01-29T17:56:18.995Z,3.93
2024-01-29T18:06:56.352Z,4.12
2024-01-29T18:12:54.681Z,4.11
2024-01-29T18:16:11.042Z,4.11
2024-01-29T18:19:21.744Z,4.08
2024-01-29T18:32:31.011Z,3.86
2024-01-29T18:42:36.808Z,3.74
2024-01-29T18:45:37.543Z,3.71
2024-01-29T18:54:23.955Z,3.74
2024-01-29T19:06:39.990Z,3.85
2024-01-29T19:13:05.053Z,3.95
2024-01-29T19:16:27.900Z,4.00
2024-01-29T19:20:07.426Z,4.00
2024-01-29T19:23:59.970Z,3.92
2024-01-29T19:31:11.514Z,3.75
2024-01-29T19:36:52.698Z,3.68
2024-01-29T19:39:48.832Z,3.65
2024-01-29T19:42:46.597Z,3.66
2024-01-29T19:48:36.932Z,3.74
2024-01-29T19:54:13.117Z,3.68
2024-01-29T19:56:46.632Z,3.64
2024-01-29T19:59:30.636Z,3.60
2024-01-29T20:02:09.283Z,3.55
2024-01-29T20:04:40.537Z,3.49
2024-01-29T20:07:15.167Z,3.44
2024-01-29T20:09:50.505Z,3.46
2024-01-29T20:12:28.994Z,3.48
2024-01-29T20:15:07.262Z,3.50
2024-01-29T20:17:45.292Z,3.51
2024-01-29T20:20:17.420Z,3.51
2024-01-29T20:22:48.976Z,3.50
2024-01-29T20:25:22.864Z,3.52
2024-01-29T20:27:57.041Z,3.54
2024-01-29T20:30:33.034Z,3.56
2024-01-29T20:33:05.307Z,3.56
2024-01-29T20:35:43.940Z,3.59
2024-01-29T20:38:22.699Z,3.62
2024-01-29T20:41:08.418Z,3.64
2024-01-29T20:43:42.009Z,3.67
2024-01-29T20:46:23.111Z,3.62
2024-01-29T20:48:56.474Z,3.61
2024-01-29T20:51:33.767Z,3.57
2024-01-29T20:54:11.411Z,3.51
2024-01-29T20:57:03.834Z,3.45
2024-01-29T20:59:34.725Z,3.39
2024-01-29T21:02:16.354Z,3.32
2024-01-29T21:05:01.594Z,3.25
2024-01-29T21:07:43.727Z,3.17
2024-01-29T21:10:25.459Z,3.13
2024-01-29T21:13:08.164Z,3.06
2024-01-29T21:16:01.556Z,3.03
2024-01-29T21:18:43.843Z,3.00
2024-01-29T21:21:36.236Z,3.00
2024-01-29T21:24:11.657Z,2.88
2024-01-29T21:26:50.171Z,2.98
2024-01-29T21:29:29.579Z,2.98
2024-01-29T21:32:22.637Z,2.96
2024-01-29T21:35:11.172Z,2.93
2024-01-29T21:37:56.027Z,2.89
2024-01-29T21:40:55.973Z,2.86
2024-01-29T21:43:44.795Z,2.87
2024-01-29T21:46:25.223Z,2.83
2024-01-29T21:49:17.109Z,2.72
2024-01-29T21:51:58.279Z,2.77
2024-01-29T21:54:48.296Z,2.72
2024-01-29T21:57:40.683Z,2.65
2024-01-29T22:00:25.002Z,2.60
2024-01-29T22:03:15.239Z,2.59
2024-01-29T22:05:59.733Z,2.58
2024-01-29T22:08:41.179Z,2.54
2024-01-29T22:11:23.915Z,2.56
2024-01-29T22:14:20.064Z,2.52
2024-01-29T22:17:13.191Z,2.52
2024-01-29T22:20:03.305Z,2.57
2024-01-29T22:22:52.359Z,2.62
2024-01-29T22:25:43.898Z,2.64
2024-01-29T22:28:32.879Z,2.70
2024-01-29T22:31:19.626Z,2.77
2024-01-29T22:33:58.757Z,2.84
2024-01-29T22:37:03.049Z,2.89
2024-01-29T22:39:51.982Z,2.91
2024-01-29T22:42:35.498Z,2.90
2024-01-29T22:45:30.153Z,2.87
2024-01-29T22:48:18.131Z,2.85
2024-01-29T22:51:46.285Z,2.83
2024-01-29T22:54:21.813Z,2.80
2024-01-29T22:57:33.439Z,2.78
2024-01-29T23:03:53.162Z,2.75
2024-01-29T23:06:51.187Z,2.76
2024-01-29T23:14:08.691Z,2.84
2024-01-29T23:16:55.875Z,2.89
2024-01-29T23:19:53.615Z,2.94
2024-01-29T23:23:25.794Z,2.98
2024-01-29T23:39:30.842Z,3.19
2024-01-29T23:53:22.082Z,3.04
